Pontos — WDC8486 — position and weather

sailwx.info

Track history (hours):
 
Tides and Currents Weather Stations Pressure Air Temp Water Temp Dewpoint Dewpoint Depression Visibility Wind Speed Wind Dir Waves Ship Positions

Pontos

Owner: Pontos Fisheries, Inc., Montauk, NY. More information available from US FCC via Universal Licensing System and Coast Guard Vessel Documentation Center.

Last reported at 2017-Jun-27 05:39 UTC. Time now 2017-Jun-29 02:22 UTC.
Position N 40°08' W 072°51'.

Length 31 m.

Type: Fishing. MMSI: 367087860.

Date/timePositionNaut miles runAvg speedWind from/ knotsBaromVisibWave heightAir tempDewpointWater temp
2017-Jun-27 05:39N 40°08' W 072°51'1 5.1
2017-Jun-27 05:30N 40°09' W 072°51'2 4.0
2017-Jun-27 05:00N 40°11' W 072°51'  
2017-Jun-22 11:51N 39°52' W 074°00'3 8.7
2017-Jun-22 11:27N 39°49' W 074°00'4 8.4
2017-Jun-22 11:01N 39°45' W 074°01'5 8.1
2017-Jun-22 10:25N 39°42' W 074°06'4 8.7
2017-Jun-22 09:58N 39°38' W 074°08'5 8.8
2017-Jun-22 09:27N 39°34' W 074°11'26 8.6
2017-Jun-22 06:25N 39°13' W 074°30'4 8.8
2017-Jun-22 05:58N 39°10' W 074°33'4 8.8
2017-Jun-22 05:30N 39°07' W 074°37'8 8.7
2017-Jun-22 04:34N 39°01' W 074°44'3 9.0
2017-Jun-22 04:17N 38°59' W 074°46'3 9.1
2017-Jun-22 04:00N 38°58' W 074°49'3 0.1
2017-Jun-21 03:04N 38°58' W 074°53'0 0.0
2017-Jun-21 02:37N 38°58' W 074°53'  
Track history (hours):
 
Tides and Currents Weather Stations Pressure Air Temp Water Temp Dewpoint Dewpoint Depression Visibility Wind Speed Wind Dir Waves Ship Positions

Pontos

Owner: Pontos Fisheries, Inc., Montauk, NY. More information available from US FCC via Universal Licensing System and Coast Guard Vessel Documentation Center.

Last reported at 2017-Jun-27 05:39 UTC. Time now 2017-Jun-29 02:22 UTC.
Position N 40°08' W 072°51'.

Length 31 m.

Type: Fishing. MMSI: 367087860.

Date/timePositionNaut miles runAvg speedWind from/ knotsBaromVisibWave heightAir tempDewpointWater temp
2017-Jun-27 05:39N 40°08' W 072°51'1 5.1
2017-Jun-27 05:30N 40°09' W 072°51'2 4.0
2017-Jun-27 05:00N 40°11' W 072°51'  
2017-Jun-22 11:51N 39°52' W 074°00'3 8.7
2017-Jun-22 11:27N 39°49' W 074°00'4 8.4
2017-Jun-22 11:01N 39°45' W 074°01'5 8.1
2017-Jun-22 10:25N 39°42' W 074°06'4 8.7
2017-Jun-22 09:58N 39°38' W 074°08'5 8.8
2017-Jun-22 09:27N 39°34' W 074°11'26 8.6
2017-Jun-22 06:25N 39°13' W 074°30'4 8.8
2017-Jun-22 05:58N 39°10' W 074°33'4 8.8
2017-Jun-22 05:30N 39°07' W 074°37'8 8.7
2017-Jun-22 04:34N 39°01' W 074°44'3 9.0
2017-Jun-22 04:17N 38°59' W 074°46'3 9.1
2017-Jun-22 04:00N 38°58' W 074°49'3 0.1
2017-Jun-21 03:04N 38°58' W 074°53'0 0.0
2017-Jun-21 02:37N 38°58' W 074°53'  

Dump ship's entire track history